Time;durP1;ratioP1;P1;durP2;ratioP2;P2;SDS_P1;SDS_P2;PMS_P1;PMS_P2;Temp;Humidity;BMP_temperature;BMP_pressure;BME280_temperature;BME280_humidity;BME280_pressure;Samples;Min_cycle;Max_cycle;Signal;HPM_P1;HPM_P2
2022/01/18 00:01:55;;;;;;;0.30;0.30;;;1.70;98.60;;;;;;5052788;28;20652;-68
2022/01/18 00:04:21;;;;;;;0.40;0.40;;;1.70;98.60;;;;;;5053983;28;20234;-68
2022/01/18 00:06:50;;;;;;;0.40;0.40;;;1.60;98.60;;;;;;5053573;28;20250;-68
2022/01/18 00:09:20;;;;;;;0.30;0.30;;;1.60;98.70;;;;;;5053939;28;20236;-68
2022/01/18 00:11:52;;;;;;;0.30;0.30;;;1.60;98.70;;;;;;5053714;28;20171;-68
2022/01/18 00:14:41;;;;;;;0.30;0.30;;;1.50;98.70;;;;;;5053880;28;20175;-68
2022/01/18 00:17:19;;;;;;;0.40;0.40;;;1.50;98.70;;;;;;5053562;28;20547;-68
2022/01/18 00:19:54;;;;;;;0.30;0.30;;;1.50;98.70;;;;;;5053608;28;20646;-68
2022/01/18 00:22:21;;;;;;;0.30;0.30;;;1.40;99.00;;;;;;5053574;28;20178;-68
2022/01/18 00:24:47;;;;;;;0.30;0.30;;;1.40;98.90;;;;;;5053450;28;20236;-68
2022/01/18 00:27:14;;;;;;;0.40;0.40;;;1.40;99.00;;;;;;5053256;28;20190;-68
2022/01/18 00:29:51;;;;;;;0.40;0.40;;;1.40;98.90;;;;;;5053448;28;20649;-68
2022/01/18 00:32:49;;;;;;;0.40;0.40;;;1.40;98.90;;;;;;5053792;28;20642;-68
2022/01/18 00:35:02;;;;;;;0.40;0.40;;;1.30;99.00;;;;;;5053262;28;20277;-68
2022/01/18 00:37:36;;;;;;;0.30;0.30;;;1.30;99.00;;;;;;5053116;28;20588;-68
2022/01/18 00:40:07;;;;;;;0.40;0.40;;;1.30;99.00;;;;;;5053505;28;20552;-68
2022/01/18 00:42:33;;;;;;;0.30;0.30;;;1.30;98.90;;;;;;5053273;28;20181;-68
2022/01/18 00:44:59;;;;;;;0.30;0.30;;;1.30;98.90;;;;;;5053423;28;20249;-68
2022/01/18 00:47:25;;;;;;;0.30;0.30;;;1.30;98.90;;;;;;5053056;28;20273;-68
2022/01/18 00:49:59;;;;;;;0.40;0.40;;;1.30;98.80;;;;;;5053207;28;20166;-68
2022/01/18 00:52:25;;;;;;;0.40;0.40;;;1.20;98.80;;;;;;5053455;28;20405;-68
2022/01/18 00:54:52;;;;;;;0.40;0.40;;;1.20;99.00;;;;;;5053285;28;20567;-68
2022/01/18 00:57:17;;;;;;;0.40;0.40;;;1.30;99.20;;;;;;5053066;28;20243;-68
2022/01/18 00:59:44;;;;;;;0.30;0.30;;;1.30;99.20;;;;;;5053024;28;20541;-68
2022/01/18 01:02:10;;;;;;;0.30;0.30;;;1.30;99.20;;;;;;5053311;28;20166;-68
2022/01/18 01:04:41;;;;;;;0.30;0.30;;;1.40;99.10;;;;;;5053051;28;20555;-68
2022/01/18 01:07:07;;;;;;;0.30;0.30;;;1.40;98.90;;;;;;5052948;28;20587;-68
2022/01/18 01:09:33;;;;;;;0.30;0.30;;;1.50;98.90;;;;;;5053060;28;20178;-68
2022/01/18 01:12:00;;;;;;;0.50;0.50;;;1.50;98.80;;;;;;5053047;28;20488;-68
2022/01/18 01:14:27;;;;;;;0.30;0.30;;;1.50;98.60;;;;;;5051943;28;20785;-68
2022/01/18 01:19:49;;;;;;;0.30;0.30;;;1.70;98.50;;;;;;5053340;28;20203;-68
2022/01/18 01:44:18;;;;;;;0.30;0.30;;;2.10;98.10;;;;;;5056582;28;20209;-68
2022/01/18 01:46:44;;;;;;;0.40;0.40;;;2.00;97.80;;;;;;5056195;28;20199;-68
2022/01/18 01:49:13;;;;;;;0.30;0.30;;;2.00;97.70;;;;;;5056498;28;20648;-68
2022/01/18 01:51:39;;;;;;;0.40;0.40;;;1.80;97.60;;;;;;5056538;28;20174;-68
2022/01/18 01:54:07;;;;;;;0.30;0.30;;;1.70;97.80;;;;;;5056467;28;20179;-69
2022/01/18 01:56:33;;;;;;;0.40;0.40;;;1.70;98.20;;;;;;5056029;28;20417;-68
2022/01/18 01:59:00;;;;;;;0.40;0.40;;;1.70;98.30;;;;;;5056395;28;20208;-68
2022/01/18 02:01:27;;;;;;;0.40;0.40;;;1.60;98.20;;;;;;5056521;28;20699;-68
2022/01/18 02:03:53;;;;;;;0.30;0.30;;;1.70;98.40;;;;;;5056158;28;20210;-68
2022/01/18 02:06:19;;;;;;;0.30;0.30;;;1.60;98.50;;;;;;5055986;28;20162;-68
2022/01/18 02:08:45;;;;;;;0.40;0.40;;;1.70;98.70;;;;;;5055918;28;20189;-68
2022/01/18 02:11:11;;;;;;;0.30;0.30;;;1.80;98.80;;;;;;5055913;28;20262;-68
2022/01/18 02:13:37;;;;;;;0.30;0.30;;;1.90;98.80;;;;;;5055899;28;20517;-68
2022/01/18 02:23:59;;;;;;;0.30;0.30;;;2.30;98.90;;;;;;5056014;28;20257;-68
2022/01/18 02:26:24;;;;;;;0.30;0.30;;;2.40;98.70;;;;;;5055733;28;20167;-68
2022/01/18 02:28:50;;;;;;;0.30;0.30;;;2.50;98.40;;;;;;5055651;28;20470;-68
2022/01/18 02:31:19;;;;;;;0.30;0.30;;;2.50;98.10;;;;;;5055738;28;20190;-68
2022/01/18 02:33:44;;;;;;;0.30;0.30;;;2.50;98.00;;;;;;5055685;28;20182;-68
2022/01/18 02:36:10;;;;;;;0.30;0.30;;;2.50;98.10;;;;;;5054358;28;20186;-68
2022/01/18 02:38:36;;;;;;;0.30;0.30;;;2.60;98.30;;;;;;5055378;28;20192;-68
2022/01/18 02:41:02;;;;;;;0.30;0.30;;;2.60;98.50;;;;;;5055503;28;20210;-68
2022/01/18 02:43:50;;;;;;;0.30;0.30;;;2.70;98.60;;;;;;5055260;28;20200;-68
2022/01/18 02:46:16;;;;;;;0.30;0.30;;;2.80;98.60;;;;;;5055095;28;20167;-68
2022/01/18 02:48:42;;;;;;;0.30;0.30;;;2.80;98.30;;;;;;5055155;28;20188;-68
2022/01/18 02:51:08;;;;;;;0.30;0.30;;;2.60;98.50;;;;;;5055259;28;20176;-68
2022/01/18 02:54:07;;;;;;;0.30;0.30;;;2.70;98.70;;;;;;5054000;28;20660;-68
2022/01/18 02:56:46;;;;;;;0.30;0.30;;;2.80;98.80;;;;;;5054972;28;20410;-68
2022/01/18 03:04:26;;;;;;;0.30;0.30;;;3.10;98.70;;;;;;5055268;28;20259;-68
2022/01/18 03:06:51;;;;;;;0.30;0.30;;;3.10;98.50;;;;;;5054701;28;20254;-68
2022/01/18 03:09:17;;;;;;;0.60;0.60;;;3.20;98.40;;;;;;5053530;28;20436;-68
2022/01/18 03:11:43;;;;;;;0.40;0.40;;;3.20;98.40;;;;;;5053559;28;20418;-68
2022/01/18 03:14:09;;;;;;;0.30;0.30;;;3.30;98.50;;;;;;5055183;28;20172;-68
2022/01/18 03:16:35;;;;;;;0.30;0.30;;;3.30;98.50;;;;;;5053211;28;20805;-68
2022/01/18 03:19:00;;;;;;;0.30;0.30;;;3.10;98.50;;;;;;5053382;28;20202;-68
2022/01/18 03:21:26;;;;;;;0.40;0.40;;;3.00;99.40;;;;;;5054684;28;20267;-68
2022/01/18 03:23:59;;;;;;;0.30;0.30;;;3.10;99.40;;;;;;5054658;28;20242;-68
2022/01/18 03:26:32;;;;;;;0.30;0.30;;;3.00;99.70;;;;;;5054549;28;20177;-68
2022/01/18 03:28:58;;;;;;;0.32;0.32;;;3.30;99.90;;;;;;5054731;28;20189;-68
2022/01/18 03:31:23;;;;;;;0.30;0.30;;;3.40;99.80;;;;;;5054533;28;20538;-68
2022/01/18 03:33:49;;;;;;;0.40;0.40;;;3.60;99.60;;;;;;5054573;28;20188;-68
2022/01/18 03:36:15;;;;;;;0.30;0.30;;;3.80;99.20;;;;;;5054230;28;20759;-68
2022/01/18 03:38:40;;;;;;;0.30;0.30;;;3.90;98.60;;;;;;5054124;28;20201;-68
2022/01/18 03:41:06;;;;;;;0.30;0.30;;;3.90;98.60;;;;;;5054278;28;20197;-68
2022/01/18 03:43:35;;;;;;;0.30;0.30;;;3.90;98.90;;;;;;5054342;28;20201;-68
2022/01/18 03:46:02;;;;;;;0.30;0.30;;;4.00;99.10;;;;;;5054033;28;20410;-68
2022/01/18 03:48:38;;;;;;;0.35;0.35;;;3.90;98.70;;;;;;5053967;28;20184;-68
2022/01/18 03:51:06;;;;;;;0.32;0.32;;;3.70;99.00;;;;;;5054083;28;20146;-68
2022/01/18 03:53:32;;;;;;;0.40;0.40;;;3.90;99.00;;;;;;5054013;28;20542;-68
2022/01/18 03:55:59;;;;;;;0.30;0.30;;;4.10;98.90;;;;;;5054020;28;20173;-68
2022/01/18 03:58:24;;;;;;;0.35;0.35;;;4.10;98.70;;;;;;5053971;28;20240;-68
2022/01/18 04:00:50;;;;;;;0.40;0.40;;;4.20;98.60;;;;;;5053876;28;20218;-68
2022/01/18 04:03:17;;;;;;;0.40;0.40;;;4.30;98.40;;;;;;5054009;28;20200;-69
2022/01/18 04:05:42;;;;;;;0.30;0.30;;;4.40;98.10;;;;;;5053802;28;20273;-68
2022/01/18 04:08:08;;;;;;;0.30;0.30;;;4.40;97.90;;;;;;5053715;28;20701;-68
2022/01/18 04:10:34;;;;;;;0.30;0.30;;;4.20;97.70;;;;;;5053754;28;20532;-68
2022/01/18 04:13:00;;;;;;;0.30;0.30;;;4.10;98.10;;;;;;5053939;28;20167;-68
2022/01/18 04:15:26;;;;;;;0.40;0.40;;;4.20;98.30;;;;;;5053610;28;20703;-68
2022/01/18 04:18:09;;;;;;;0.30;0.30;;;4.30;98.10;;;;;;5054051;28;20194;-68
2022/01/18 04:28:47;;;;;;;0.40;0.40;;;4.60;97.50;;;;;;5053698;28;20197;-68
2022/01/18 04:31:13;;;;;;;0.40;0.40;;;4.60;97.30;;;;;;5053512;28;20639;-68
2022/01/18 04:33:39;;;;;;;0.30;0.30;;;4.70;97.30;;;;;;5053513;28;20532;-68
2022/01/18 04:36:06;;;;;;;0.40;0.40;;;4.60;97.30;;;;;;5053161;28;20222;-68
2022/01/18 04:38:33;;;;;;;0.30;0.30;;;4.60;97.30;;;;;;5053243;28;20226;-68
2022/01/18 04:41:04;;;;;;;0.35;0.35;;;4.50;97.40;;;;;;5053356;28;20294;-68
2022/01/18 04:49:11;;;;;;;0.30;0.30;;;4.60;97.50;;;;;;5053416;28;20200;-68
2022/01/18 04:51:37;;;;;;;0.40;0.40;;;4.40;97.50;;;;;;5053201;28;20178;-68
2022/01/18 04:54:06;;;;;;;0.40;0.40;;;4.10;98.00;;;;;;5053260;28;20166;-68
2022/01/18 04:59:02;;;;;;;0.40;0.40;;;3.80;98.70;;;;;;5054048;28;20204;-69
2022/01/18 05:01:28;;;;;;;0.30;0.30;;;3.50;99.20;;;;;;5057364;28;20174;-68
2022/01/18 05:03:54;;;;;;;0.40;0.40;;;3.60;99.50;;;;;;5057289;28;20216;-68
2022/01/18 05:06:20;;;;;;;0.30;0.30;;;3.60;99.50;;;;;;5057010;28;20393;-68
2022/01/18 05:08:46;;;;;;;0.40;0.40;;;3.60;99.50;;;;;;5057024;28;20185;-68
2022/01/18 05:11:18;;;;;;;0.30;0.30;;;3.60;99.40;;;;;;5057045;28;20177;-68
2022/01/18 05:19:06;;;;;;;0.30;0.30;;;3.30;99.70;;;;;;5057252;28;20190;-68
2022/01/18 05:22:55;;;;;;;0.32;0.32;;;3.40;99.80;;;;;;5056869;28;20412;-68
2022/01/18 05:24:23;;;;;;;0.40;0.40;;;3.30;99.60;;;;;;5056792;28;20245;-68
2022/01/18 05:26:50;;;;;;;0.30;0.30;;;3.20;99.70;;;;;;5056529;28;20205;-68
2022/01/18 05:29:16;;;;;;;0.30;0.30;;;3.20;99.60;;;;;;5056697;28;20170;-68
2022/01/18 05:31:42;;;;;;;0.30;0.30;;;3.10;99.70;;;;;;5056920;28;20181;-68
2022/01/18 05:34:08;;;;;;;0.40;0.40;;;3.10;99.90;;;;;;5056770;28;20869;-68
2022/01/18 05:36:34;;;;;;;0.30;0.30;;;3.10;99.90;;;;;;5056520;28;20300;-68
2022/01/18 05:38:59;;;;;;;0.30;0.30;;;3.10;99.90;;;;;;5056519;28;20196;-68
2022/01/18 05:41:25;;;;;;;0.40;0.40;;;3.10;99.90;;;;;;5056711;28;20174;-68
2022/01/18 05:43:51;;;;;;;0.30;0.30;;;3.00;99.90;;;;;;5056483;28;20201;-68
2022/01/18 05:46:16;;;;;;;0.33;0.33;;;2.80;99.90;;;;;;5056549;28;20166;-68
2022/01/18 05:48:42;;;;;;;0.30;0.30;;;2.90;99.90;;;;;;5056351;28;20570;-68
2022/01/18 05:51:08;;;;;;;0.40;0.40;;;3.00;99.90;;;;;;5056893;28;20173;-68
2022/01/18 05:53:35;;;;;;;0.30;0.30;;;3.10;99.90;;;;;;5056457;28;20243;-68
2022/01/18 05:56:02;;;;;;;0.30;0.30;;;3.20;99.90;;;;;;5056245;28;20778;-68
2022/01/18 05:58:28;;;;;;;0.30;0.30;;;3.20;99.70;;;;;;5054876;28;20634;-68
2022/01/18 06:00:55;;;;;;;0.30;0.30;;;3.20;99.70;;;;;;5056143;28;20190;-68
2022/01/18 06:03:28;;;;;;;0.30;0.30;;;3.20;99.70;;;;;;5056185;28;20196;-68
2022/01/18 06:08:39;;;;;;;0.35;0.35;;;3.20;99.90;;;;;;5056331;28;20283;-68
2022/01/18 06:11:05;;;;;;;0.30;0.30;;;3.20;99.90;;;;;;5056388;28;20607;-68
2022/01/18 06:13:31;;;;;;;0.30;0.30;;;3.10;99.90;;;;;;5055929;28;20358;-68
2022/01/18 06:15:56;;;;;;;0.30;0.30;;;3.00;99.90;;;;;;5055908;28;20173;-68
2022/01/18 06:18:22;;;;;;;0.40;0.40;;;3.00;99.90;;;;;;5055729;28;20202;-68
2022/01/18 06:20:48;;;;;;;0.30;0.30;;;3.00;99.90;;;;;;5055798;28;20205;-68
2022/01/18 06:23:14;;;;;;;0.30;0.30;;;3.10;99.90;;;;;;5056116;28;20466;-68
2022/01/18 06:25:40;;;;;;;0.30;0.30;;;3.20;99.90;;;;;;5054227;28;20173;-68
2022/01/18 06:28:06;;;;;;;0.32;0.32;;;3.30;99.80;;;;;;5055554;28;20188;-68
2022/01/18 06:30:31;;;;;;;0.30;0.30;;;3.20;99.70;;;;;;5055738;28;20300;-68
2022/01/18 06:32:57;;;;;;;0.40;0.40;;;3.20;99.70;;;;;;5056021;28;20711;-68
2022/01/18 06:35:23;;;;;;;0.30;0.30;;;3.20;99.50;;;;;;5055369;28;20169;-68
2022/01/18 06:37:48;;;;;;;0.30;0.30;;;3.10;99.60;;;;;;5055630;28;20537;-68
2022/01/18 06:40:15;;;;;;;0.30;0.30;;;3.20;99.40;;;;;;5055492;28;20530;-68
2022/01/18 06:42:41;;;;;;;0.30;0.30;;;3.20;99.30;;;;;;5055793;28;20172;-68
2022/01/18 06:45:07;;;;;;;0.30;0.30;;;3.10;99.50;;;;;;5055367;28;20204;-68
2022/01/18 06:47:33;;;;;;;0.30;0.30;;;3.10;99.70;;;;;;5055288;28;20425;-69
2022/01/18 06:49:59;;;;;;;0.30;0.30;;;3.10;99.70;;;;;;5055244;28;20173;-68
2022/01/18 06:52:24;;;;;;;0.30;0.30;;;3.10;99.70;;;;;;5055233;28;20634;-68
2022/01/18 06:54:50;;;;;;;0.40;0.40;;;3.10;99.60;;;;;;5055217;28;20207;-68
2022/01/18 06:57:16;;;;;;;0.40;0.40;;;3.10;99.60;;;;;;5054935;28;20534;-68
2022/01/18 06:59:41;;;;;;;0.30;0.30;;;3.10;99.90;;;;;;5055113;28;20663;-68
2022/01/18 07:02:07;;;;;;;0.30;0.30;;;2.90;99.90;;;;;;5055155;28;20255;-68
2022/01/18 07:04:34;;;;;;;0.30;0.30;;;2.80;99.90;;;;;;5055089;28;20666;-68
2022/01/18 07:06:59;;;;;;;0.40;0.40;;;2.90;99.90;;;;;;5054712;28;20193;-68
2022/01/18 07:09:25;;;;;;;0.30;0.30;;;2.90;99.90;;;;;;5054916;28;20255;-68
2022/01/18 07:11:52;;;;;;;0.30;0.30;;;2.90;99.90;;;;;;5054934;28;20164;-68
2022/01/18 07:14:19;;;;;;;0.32;0.32;;;3.00;99.90;;;;;;5055003;28;20277;-68
2022/01/18 07:16:45;;;;;;;0.40;0.40;;;2.90;99.70;;;;;;5054422;28;20180;-69
2022/01/18 07:19:10;;;;;;;0.40;0.40;;;3.00;99.60;;;;;;5054555;28;20195;-68
2022/01/18 07:21:36;;;;;;;0.40;0.40;;;2.90;99.70;;;;;;5054234;28;20183;-69
2022/01/18 07:24:05;;;;;;;0.30;0.30;;;2.90;99.80;;;;;;5054560;28;20200;-68
2022/01/18 07:26:32;;;;;;;0.40;0.40;;;2.80;99.90;;;;;;5054475;28;20200;-68
2022/01/18 07:28:57;;;;;;;0.30;0.30;;;2.80;99.90;;;;;;5054417;28;20287;-68
2022/01/18 07:31:23;;;;;;;0.40;0.40;;;2.90;99.90;;;;;;5054652;28;20250;-68
2022/01/18 07:33:49;;;;;;;0.40;0.40;;;2.80;99.90;;;;;;5054579;28;20177;-68
2022/01/18 07:36:14;;;;;;;0.40;0.40;;;2.90;99.90;;;;;;5054377;28;20927;-68
2022/01/18 07:38:40;;;;;;;0.40;0.40;;;3.10;99.70;;;;;;5054457;28;20276;-68
2022/01/18 07:41:06;;;;;;;0.40;0.40;;;3.00;99.40;;;;;;5054224;28;20170;-68
2022/01/18 07:43:31;;;;;;;0.30;0.30;;;3.00;99.40;;;;;;5054256;28;20662;-68
2022/01/18 07:45:57;;;;;;;0.30;0.30;;;3.10;99.40;;;;;;5054207;28;20646;-68
2022/01/18 07:48:23;;;;;;;0.40;0.40;;;3.00;98.90;;;;;;5054132;28;20195;-68
2022/01/18 07:50:53;;;;;;;0.35;0.35;;;3.00;99.00;;;;;;5054087;28;20191;-68
2022/01/18 07:53:20;;;;;;;0.30;0.30;;;3.00;99.00;;;;;;5054323;28;20188;-68
2022/01/18 07:55:47;;;;;;;0.35;0.35;;;3.00;98.90;;;;;;5053876;28;20534;-68
2022/01/18 07:58:13;;;;;;;0.30;0.30;;;3.10;99.20;;;;;;5054009;28;20194;-68
2022/01/18 08:00:39;;;;;;;0.40;0.40;;;3.10;98.70;;;;;;5053835;28;20326;-68
2022/01/18 08:03:04;;;;;;;0.40;0.40;;;3.20;98.70;;;;;;5053982;28;20261;-68
2022/01/18 08:05:30;;;;;;;0.30;0.30;;;2.90;98.40;;;;;;5053667;28;20177;-68
2022/01/18 08:07:56;;;;;;;0.30;0.30;;;2.80;98.80;;;;;;5052525;28;20279;-68
2022/01/18 08:10:21;;;;;;;0.30;0.30;;;3.10;98.90;;;;;;5053985;28;20239;-68
2022/01/18 08:12:47;;;;;;;0.30;0.30;;;3.60;99.50;;;;;;5053932;28;20172;-69
2022/01/18 08:15:25;;;;;;;0.40;0.40;;;4.80;98.20;;;;;;5053857;28;20180;-68
2022/01/18 08:17:52;;;;;;;0.40;0.40;;;6.20;94.70;;;;;;5053709;28;20197;-68
2022/01/18 08:20:18;;;;;;;0.40;0.40;;;7.20;91.70;;;;;;5053623;28;20631;-68
2022/01/18 08:22:45;;;;;;;0.37;0.37;;;8.00;90.00;;;;;;5053654;28;20254;-69
2022/01/18 08:25:12;;;;;;;0.32;0.32;;;8.80;86.70;;;;;;5053614;28;20206;-69
2022/01/18 08:27:38;;;;;;;0.40;0.40;;;9.70;82.30;;;;;;5053209;28;20191;-69
2022/01/18 08:30:08;;;;;;;0.30;0.30;;;10.30;77.80;;;;;;5053499;28;20256;-69
2022/01/18 08:32:33;;;;;;;0.40;0.40;;;10.70;75.20;;;;;;5053596;28;20180;-69
2022/01/18 08:34:59;;;;;;;0.30;0.30;;;11.40;72.30;;;;;;5052547;28;20627;-69
2022/01/18 08:37:24;;;;;;;0.30;0.30;;;11.60;69.90;;;;;;5053274;28;20561;-69
2022/01/18 08:39:52;;;;;;;0.30;0.30;;;11.40;69.10;;;;;;5053496;28;20177;-69
2022/01/18 08:42:17;;;;;;;0.40;0.40;;;10.80;70.10;;;;;;5053638;28;20209;-69
2022/01/18 08:44:43;;;;;;;0.30;0.30;;;10.50;71.20;;;;;;5053387;28;20233;-69
2022/01/18 08:47:15;;;;;;;0.30;0.30;;;10.30;72.00;;;;;;5053073;28;20274;-68
2022/01/18 08:49:41;;;;;;;0.30;0.30;;;10.10;72.90;;;;;;5053314;28;20181;-69
2022/01/18 08:52:07;;;;;;;0.40;0.40;;;10.00;72.70;;;;;;5053457;28;20162;-69
2022/01/18 08:54:34;;;;;;;0.30;0.30;;;10.10;72.60;;;;;;5053366;28;20173;-69
2022/01/18 08:57:03;;;;;;;0.30;0.30;;;10.30;72.10;;;;;;5052958;28;20239;-69
2022/01/18 08:59:30;;;;;;;0.60;0.60;;;10.20;71.70;;;;;;5051795;28;20207;-69
2022/01/18 09:01:58;;;;;;;0.30;0.30;;;9.90;74.00;;;;;;5053168;28;20173;-69
2022/01/18 09:04:24;;;;;;;0.30;0.30;;;10.20;72.60;;;;;;5053186;28;20201;-69
2022/01/18 09:06:52;;;;;;;0.67;0.67;;;10.70;70.90;;;;;;5052817;28;20173;-69
2022/01/18 09:09:18;;;;;;;0.30;0.30;;;10.80;70.20;;;;;;5053204;28;20412;-69
2022/01/18 09:11:45;;;;;;;0.38;0.38;;;10.90;69.70;;;;;;5053266;28;20639;-69
2022/01/18 09:14:11;;;;;;;0.30;0.30;;;10.70;68.30;;;;;;5053406;28;20204;-69
2022/01/18 09:16:37;;;;;;;0.30;0.30;;;10.60;70.00;;;;;;5053023;28;20188;-69
2022/01/18 09:19:03;;;;;;;0.33;0.33;;;10.50;69.70;;;;;;5052939;28;20190;-69
2022/01/18 09:21:31;;;;;;;0.30;0.30;;;10.70;70.20;;;;;;5053143;28;20444;-68
2022/01/18 09:23:57;;;;;;;0.30;0.30;;;11.30;69.40;;;;;;5053113;28;20190;-69
2022/01/18 09:26:23;;;;;;;0.30;0.30;;;12.40;65.50;;;;;;5052831;28;20545;-69
2022/01/18 09:28:48;;;;;;;0.30;0.30;;;12.20;63.30;;;;;;5052870;28;20680;-69
2022/01/18 09:31:14;;;;;;;0.30;0.30;;;13.30;61.90;;;;;;5052947;28;20174;-69
2022/01/18 09:33:40;;;;;;;0.30;0.30;;;13.80;59.00;;;;;;5052976;28;20170;-69
2022/01/18 09:36:06;;;;;;;0.30;0.30;;;13.80;58.80;;;;;;5052822;28;20223;-69
2022/01/18 09:38:31;;;;;;;0.30;0.30;;;14.60;57.40;;;;;;5052985;28;20562;-69
2022/01/18 09:41:00;;;;;;;0.30;0.30;;;15.20;55.20;;;;;;5052799;28;20405;-69
2022/01/18 09:43:27;;;;;;;0.30;0.30;;;14.90;54.50;;;;;;5052751;28;20251;-69
2022/01/18 09:45:56;;;;;;;0.30;0.30;;;15.10;54.00;;;;;;5054650;28;20404;-69
2022/01/18 09:48:22;;;;;;;0.30;0.30;;;15.70;53.00;;;;;;5056431;28;20416;-69
2022/01/18 09:50:48;;;;;;;0.30;0.30;;;16.60;50.50;;;;;;5056545;28;20407;-69
2022/01/18 09:53:14;;;;;;;0.30;0.30;;;17.20;49.20;;;;;;5056581;28;20257;-69
2022/01/18 09:55:41;;;;;;;0.30;0.30;;;17.70;48.00;;;;;;5056310;28;20796;-69
2022/01/18 09:58:08;;;;;;;0.40;0.40;;;18.10;46.50;;;;;;5056343;28;20431;-70
2022/01/18 10:00:36;;;;;;;0.40;0.40;;;18.70;44.90;;;;;;5056243;28;20847;-69
2022/01/18 10:03:02;;;;;;;0.30;0.30;;;17.90;44.90;;;;;;5056256;28;20407;-69
2022/01/18 10:05:32;;;;;;;0.30;0.30;;;17.50;45.50;;;;;;5056105;28;20410;-69
2022/01/18 10:08:06;;;;;;;0.30;0.30;;;17.60;45.50;;;;;;5056243;28;20549;-69
2022/01/18 10:10:45;;;;;;;0.30;0.30;;;18.00;45.20;;;;;;5056067;28;20449;-69
2022/01/18 10:13:23;;;;;;;0.40;0.40;;;18.50;44.70;;;;;;5056352;28;20393;-69
2022/01/18 10:16:04;;;;;;;0.90;0.90;;;18.50;43.10;;;;;;5056034;28;20400;-69
2022/01/18 10:18:48;;;;;;;0.30;0.30;;;18.50;42.60;;;;;;5055700;28;20424;-70
2022/01/18 10:21:34;;;;;;;0.30;0.30;;;18.50;42.20;;;;;;5056010;28;20408;-69
2022/01/18 10:24:11;;;;;;;0.30;0.30;;;18.90;42.50;;;;;;5055848;28;20451;-69
2022/01/18 10:26:41;;;;;;;0.30;0.30;;;19.30;41.60;;;;;;5055558;28;20431;-69
2022/01/18 10:29:08;;;;;;;0.30;0.30;;;19.60;40.40;;;;;;5055527;28;20443;-69
2022/01/18 10:31:45;;;;;;;0.30;0.30;;;19.20;40.60;;;;;;5055515;28;20409;-69
2022/01/18 10:34:27;;;;;;;0.30;0.30;;;18.90;40.40;;;;;;5055727;28;20428;-69
2022/01/18 10:37:09;;;;;;;0.30;0.30;;;18.60;41.20;;;;;;5055251;28;20396;-69
2022/01/18 10:39:46;;;;;;;0.30;0.30;;;18.80;41.00;;;;;;5055938;28;20479;-69
2022/01/18 10:42:33;;;;;;;0.30;0.30;;;18.90;40.70;;;;;;5055700;28;20758;-69
2022/01/18 10:44:59;;;;;;;0.30;0.30;;;19.00;40.70;;;;;;5055582;28;20477;-69
2022/01/18 10:47:25;;;;;;;0.60;0.60;;;19.40;39.90;;;;;;5055119;28;20428;-69
2022/01/18 10:49:51;;;;;;;0.30;0.30;;;18.50;39.80;;;;;;5055294;28;20208;-69
2022/01/18 10:52:26;;;;;;;0.30;0.30;;;17.50;41.00;;;;;;5055198;28;20434;-69
2022/01/18 10:54:54;;;;;;;0.30;0.30;;;16.20;42.50;;;;;;5055402;28;20168;-69
2022/01/18 10:57:24;;;;;;;0.30;0.30;;;14.00;45.40;;;;;;5053911;28;20482;-69
2022/01/18 11:00:09;;;;;;;0.70;0.70;;;13.60;47.20;;;;;;5054992;28;20424;-69
2022/01/18 11:02:39;;;;;;;0.70;0.60;;;13.50;47.40;;;;;;5055137;28;20828;-69
2022/01/18 11:05:17;;;;;;;0.30;0.30;;;14.00;47.00;;;;;;5055160;28;20456;-70
2022/01/18 11:07:45;;;;;;;0.40;0.40;;;14.20;46.80;;;;;;5054753;28;20416;-68
2022/01/18 11:10:13;;;;;;;0.30;0.30;;;13.30;46.90;;;;;;5053492;28;20906;-70
2022/01/18 11:12:52;;;;;;;0.30;0.30;;;11.70;49.40;;;;;;5054934;28;20409;-69
2022/01/18 11:15:21;;;;;;;0.50;0.50;;;11.10;51.60;;;;;;5055075;28;20166;-69
2022/01/18 11:17:51;;;;;;;0.40;0.40;;;10.60;52.90;;;;;;5053563;28;20194;-69
2022/01/18 11:20:20;;;;;;;0.30;0.30;;;9.80;55.00;;;;;;5054684;28;20251;-69
2022/01/18 11:22:48;;;;;;;0.30;0.30;;;8.60;57.60;;;;;;5054728;28;20181;-69
2022/01/18 11:25:15;;;;;;;0.30;0.30;;;8.40;58.50;;;;;;5054453;28;20208;-69
2022/01/18 11:27:47;;;;;;;0.30;0.30;;;8.20;59.50;;;;;;5054306;28;20671;-69
2022/01/18 11:30:13;;;;;;;0.30;0.30;;;8.40;60.30;;;;;;5054567;28;20177;-69
2022/01/18 11:32:39;;;;;;;0.30;0.30;;;8.00;61.10;;;;;;5054547;28;20597;-69
2022/01/18 11:35:16;;;;;;;0.38;0.38;;;8.00;62.70;;;;;;5054729;28;20176;-69
2022/01/18 11:37:54;;;;;;;0.40;0.40;;;8.30;62.70;;;;;;5054368;28;20688;-69
2022/01/18 11:40:20;;;;;;;0.40;0.40;;;8.40;62.40;;;;;;5054327;28;20176;-69
2022/01/18 11:42:53;;;;;;;3.35;2.45;;;7.90;63.80;;;;;;5054333;28;20215;-69
2022/01/18 11:45:25;;;;;;;0.40;0.40;;;7.70;65.00;;;;;;5054049;28;20223;-69
2022/01/18 11:48:17;;;;;;;0.40;0.40;;;7.40;65.70;;;;;;5054132;28;20188;-69
2022/01/18 11:51:05;;;;;;;0.40;0.40;;;7.70;66.20;;;;;;5054111;28;20658;-69
2022/01/18 11:53:44;;;;;;;0.30;0.30;;;8.30;65.00;;;;;;5054237;28;20219;-69
2022/01/18 11:56:30;;;;;;;0.30;0.30;;;8.50;63.60;;;;;;5053990;28;20584;-69
2022/01/18 11:59:15;;;;;;;0.38;0.38;;;8.40;64.10;;;;;;5054322;28;20609;-69
2022/01/18 12:01:58;;;;;;;0.30;0.30;;;7.60;64.90;;;;;;5054119;28;20255;-69
2022/01/18 12:07:31;;;;;;;0.30;0.30;;;7.30;69.40;;;;;;5053668;28;20202;-69
2022/01/18 12:09:57;;;;;;;0.40;0.40;;;7.50;69.30;;;;;;5053669;28;20176;-69
2022/01/18 12:12:41;;;;;;;0.40;0.40;;;7.10;69.10;;;;;;5053895;28;20178;-69
2022/01/18 12:15:15;;;;;;;0.30;0.30;;;7.30;70.60;;;;;;5053913;28;20182;-69
2022/01/18 12:17:49;;;;;;;0.40;0.40;;;7.60;69.80;;;;;;5053484;28;20191;-69
2022/01/18 12:20:46;;;;;;;0.40;0.40;;;7.70;69.70;;;;;;5053744;28;20174;-69
2022/01/18 12:23:24;;;;;;;0.30;0.30;;;7.70;69.60;;;;;;5052927;28;20267;-69
2022/01/18 12:25:56;;;;;;;0.60;0.60;;;7.50;69.50;;;;;;5053512;28;20186;-69
2022/01/18 12:34:46;;;;;;;0.40;0.40;;;6.70;71.00;;;;;;5053725;28;20323;-69
2022/01/18 12:37:20;;;;;;;0.30;0.30;;;6.50;72.40;;;;;;5051975;28;20197;-69
2022/01/18 12:40:05;;;;;;;0.40;0.40;;;6.20;73.70;;;;;;5053438;28;20162;-69
2022/01/18 12:45:22;;;;;;;0.40;0.40;;;5.30;78.30;;;;;;5053258;28;20271;-69
2022/01/18 12:47:59;;;;;;;0.30;0.30;;;5.00;80.90;;;;;;5053502;28;20678;-69
2022/01/18 12:50:35;;;;;;;0.40;0.40;;;5.10;82.10;;;;;;5053334;28;20150;-69
2022/01/18 12:53:08;;;;;;;0.30;0.30;;;5.30;81.60;;;;;;5053532;28;20195;-69
2022/01/18 12:55:38;;;;;;;0.30;0.30;;;5.50;82.10;;;;;;5053309;28;20249;-69
2022/01/18 12:58:11;;;;;;;0.40;0.40;;;5.50;82.20;;;;;;5053057;28;20182;-69
2022/01/18 13:00:47;;;;;;;0.40;0.40;;;5.60;82.60;;;;;;5053341;28;20229;-69
2022/01/18 13:03:25;;;;;;;0.40;0.40;;;5.80;82.20;;;;;;5053120;28;20227;-69
2022/01/18 13:05:55;;;;;;;0.30;0.30;;;5.90;81.90;;;;;;5053384;28;20166;-69
2022/01/18 13:08:25;;;;;;;0.35;0.35;;;5.70;81.20;;;;;;5053240;28;20268;-69
2022/01/18 13:10:52;;;;;;;0.40;0.40;;;5.70;82.20;;;;;;5053252;28;20647;-69
2022/01/18 13:13:22;;;;;;;0.30;0.30;;;5.70;82.20;;;;;;5053180;28;20240;-69
2022/01/18 13:24:12;;;;;;;0.35;0.35;;;5.20;81.70;;;;;;5057209;28;20292;-69
2022/01/18 13:26:45;;;;;;;0.40;0.40;;;5.30;82.20;;;;;;5056955;28;20563;-69
2022/01/18 13:29:19;;;;;;;0.40;0.40;;;5.40;81.70;;;;;;5056826;28;20280;-69
2022/01/18 13:31:48;;;;;;;0.40;0.40;;;5.30;81.70;;;;;;5056977;28;20178;-69
2022/01/18 13:34:16;;;;;;;0.40;0.40;;;5.20;81.40;;;;;;5056863;28;20166;-69
2022/01/18 13:36:52;;;;;;;0.40;0.40;;;5.20;81.30;;;;;;5056467;28;20204;-69
2022/01/18 13:39:49;;;;;;;0.30;0.30;;;5.00;80.40;;;;;;5056670;28;20154;-69
2022/01/18 13:42:19;;;;;;;0.40;0.40;;;5.10;80.60;;;;;;5056050;28;20186;-69
2022/01/18 13:45:07;;;;;;;0.80;0.80;;;5.20;80.20;;;;;;5056628;28;20190;-69
2022/01/18 13:47:46;;;;;;;0.40;0.40;;;5.40;80.60;;;;;;5056340;28;20190;-69
2022/01/18 13:50:40;;;;;;;0.40;0.40;;;5.60;81.00;;;;;;5056453;28;20159;-69
2022/01/18 13:53:13;;;;;;;0.40;0.40;;;5.70;82.80;;;;;;5056516;28;20166;-69
2022/01/18 13:56:03;;;;;;;0.40;0.40;;;5.60;83.00;;;;;;5056209;28;20519;-69
2022/01/18 13:58:33;;;;;;;0.40;0.40;;;5.50;82.70;;;;;;5056358;28;20213;-69
2022/01/18 14:01:37;;;;;;;0.35;0.35;;;5.50;83.30;;;;;;5056316;28;20182;-69
2022/01/18 14:04:21;;;;;;;0.40;0.40;;;5.40;83.90;;;;;;5056225;28;20703;-69
2022/01/18 14:06:49;;;;;;;0.40;0.40;;;5.30;84.30;;;;;;5056091;28;20162;-69
2022/01/18 14:09:16;;;;;;;0.40;0.40;;;5.10;83.90;;;;;;5056108;28;20171;-69
2022/01/18 14:11:53;;;;;;;0.40;0.40;;;5.10;84.90;;;;;;5056203;28;20162;-69
2022/01/18 14:14:29;;;;;;;0.40;0.40;;;5.30;84.40;;;;;;5056246;28;20181;-69
2022/01/18 14:17:11;;;;;;;0.40;0.40;;;5.30;84.80;;;;;;5055843;28;20166;-69
2022/01/18 14:19:39;;;;;;;0.40;0.40;;;5.30;84.90;;;;;;5056040;28;20166;-69
2022/01/18 14:22:18;;;;;;;0.40;0.40;;;5.20;84.40;;;;;;5055804;28;20174;-69
2022/01/18 14:24:50;;;;;;;0.35;0.35;;;5.10;83.90;;;;;;5055975;28;20225;-69
2022/01/18 14:27:28;;;;;;;0.30;0.30;;;4.80;84.50;;;;;;5055570;28;20265;-69
2022/01/18 14:30:03;;;;;;;0.40;0.40;;;4.50;86.30;;;;;;5054511;28;20510;-69
2022/01/18 14:32:32;;;;;;;0.30;0.30;;;4.50;87.10;;;;;;5055836;28;20597;-69